Aviation Digital Data Service (ADDS)

Output produced by TAFs form (1958 UTC 25 February 2018)
found at http://aviationweather.gov/adds/tafs/
 
METAR text: WSSS 251930Z 02003KT 320V070 9000 SCT014 BKN300 26/24 Q1009 NOSIG
Conditions at: WSSS (SINGAPORE/CHANGI, SG) observed 1930 UTC 25 February 2018
Temperature: 26.0°C (79°F)
Dewpoint: 24.0°C (75°F) [RH = 89%]
Pressure (altimeter): 29.79 inches Hg (1009.0 mb)
Winds: from the NNE (20 degrees) at 3 MPH (3 knots; 1.6 m/s)
Visibility: 6 miles (9 km)
Ceiling: 30000 feet AGL
Clouds: scattered clouds at 1400 feet AGL
broken clouds at 30000 feet AGL
Weather: no significant weather observed at this time

Forecast for: WSSS (SINGAPORE/CHANGI, SG)
Text: TAF WSSS 251700Z 2518/2700 04009KT 9999 FEW018CB SCT020
Forecast period: 1800 UTC 25 February 2018 to 0000 UTC 27 February 2018
Forecast type: FROM: standard forecast or significant change
Winds: from the NE (40 degrees) at 10 MPH (9 knots; 4.7 m/s)
Visibility: 6 or more miles (10+ km)
Clouds: few clouds at 1800 feet AGL
scattered clouds at 2000 feet AGL
Weather: no significant weather forecast for this period
Text: TEMPO 2605/2609 4000 SHRA FEW012CB BKN015
Forecast period: 0500 to 0900 UTC 26 February 2018
Forecast type: TEMPORARY: The following changes expected for less than half the time period
Visibility: 2.49 miles (4.01 km)
Ceiling: 1500 feet AGL
Clouds: few clouds at 1200 feet AGL
broken clouds at 1500 feet AGL
Weather: SHRA  (rain showers)